ADDS METAR Data INFO
IDs: Format: Raw Decoded Include TAF

Data at: 1741 UTC 25 Feb 2018

KLXV 251731Z AUTO 34013G20KT 3SM -SN BKN028 OVC036 M12/M18 A2988 RMK AO2 UPE1659SNB1659 P0000 T11171183
KLXV 251715Z AUTO 33011G23KT 1 3/4SM -SN BKN028 OVC036 M13/M19 A2987 RMK AO2 VIS 1V4 UPE1659SNB1659 P0000 T11281189
KLXV 251653Z AUTO 34011G22KT 4SM UP BKN027 BKN034 OVC041 M13/M19 A2986 RMK AO2 PK WND 32027/1559 UPB1557E10B51SNB15E51 SLP152 P0000 T11331189
KLXV 251623Z AUTO 33014G24KT 2SM -SN BKN027 OVC039 M13/M19 A2985 RMK AO2 PK WND 32027/1559 UPB1557E10SNB15 P0000 T11331189
KLXV 251553Z AUTO 34011G21KT 3SM HZ BKN025 OVC035 M14/M19 A2984 RMK AO2 SNE52 SLP144 P0000 T11391189
KLXV 251529Z AUTO 34009G18KT 1 1/2SM -SN BKN018 OVC028 M14/M18 A2982 RMK AO2 P0000 T11441183
KLXV 251517Z AUTO 34007KT 3/4SM -SN BR VV017 M15/M17 A2982 RMK AO2 P0000 T11501172
KLXV 251510Z AUTO 31009KT 1SM -SN VV017 M15/M18 A2981 RMK AO2 P0000 T11501178
KLXV 251453Z AUTO 31006KT 3/4SM -SN BR VV016 M15/M17 A2980 RMK AO2 SNB08 SLP141 P0001 60001 T11501172 51008
KLXV 251448Z AUTO 31007KT 3/4SM -SN VV016 M15/M18 A2980 RMK AO2 SNB08 P0000
KLXV 251413Z AUTO 30007KT 1 3/4SM -SN OVC026 M15/M19 A2978 RMK AO2 SNB08 P0000 T11501189
KLXV 251401Z AUTO 31010KT 6SM HZ OVC032 M15/M19 A2978 RMK AO2 T11501194
KLXV 251353Z AUTO 31009KT 8SM OVC028 M15/M19 A2978 RMK AO2 SNB1254E43 SLP135 P0000 T11501189
KLXV 251339Z AUTO 31006KT 3SM -SN OVC024 M16/M18 A2978 RMK AO2 SNB1254 P0000 T11561183
KLXV 251308Z AUTO 32009G16KT 1 1/2SM -SN OVC024 M16/M18 A2977 RMK AO2 SNB1254 P0000 T11561183
KLXV 251257Z AUTO 32009KT 2 1/2SM -SN OVC028 M16/M19 A2977 RMK AO2 SNB54 P0000 T11561189
KLXV 251253Z AUTO 31010G17KT 5SM HZ OVC030 M15/M19 A2977 RMK AO2 SNE21 SLP124 P0000 T11501189
KLXV 251249Z AUTO 32007G17KT 5SM HZ OVC030 M15/M19 A2976 RMK AO2 SNE21 P0000
KLXV 251214Z AUTO 30010G20KT 3SM -SN OVC025 M15/M18 A2976 RMK AO2 P0000 T11501183
KLXV 251206Z AUTO 30013G20KT 1 3/4SM -SN BR OVC027 M16/M18 A2975 RMK AO2 P0000 T11561178
KLXV 251159Z AUTO 32008KT 2SM -SN OVC029 M16/M18 A2976 RMK AO2 P0000 T11561183
KLXV 251153Z AUTO 32007G18KT 5SM -SN OVC035 M15/M19 A2975 RMK AO2 SNB52 SLP109 P0000 60000 T11501189 11150 21156 53003
KLXV 251053Z AUTO 32010G18KT 8SM OVC031 M15/M18 A2974 RMK AO2 SNE16 SLP103 P0000 T11501183
KLXV 251022Z AUTO 33007G16KT 3SM BR OVC021 M15/M17 A2973 RMK AO2 SNE16 P0000 T11501172
KLXV 251015Z AUTO 32006G16KT 2 1/2SM -SN BR OVC025 M15/M17 A2973 RMK AO2 P0000 T11501172
KLXV 250959Z AUTO 33005KT 1 1/4SM -SN BR OVC029 M15/M17 A2973 RMK AO2 P0000 T11501172
KLXV 250953Z AUTO 33007KT 2SM -SN BR OVC033 M15/M17 A2973 RMK AO2 SNE11B47 SLP100 P0000 T11501172
KLXV 250914Z AUTO 36005KT 4SM BR OVC037 M15/M17 A2973 RMK AO2 SNE11 P0000 T11501172
KLXV 250900Z AUTO 01006KT 2SM -SN BR OVC031 M15/M17 A2974 RMK AO2 P0000 T11501167
KLXV 250853Z AUTO 36006KT 1 1/2SM -SN BR OVC027 M15/M17 A2974 RMK AO2 SNB36 SLP105 P0000 60000 T11501167 56002
KLXV 250850Z AUTO 36006KT 1 1/2SM -SN BR OVC027 M15/M17 A2974 RMK AO2 SNB36 P0000
KLXV 250843Z AUTO 36005KT 1 3/4SM -SN BR OVC031 M15/M17 A2974 RMK AO2 SNB36 P0000 T11501172
KLXV 250753Z AUTO 03005KT 9SM OVC055 M16/M18 A2975 RMK AO2 SLP112 T11561178
KLXV 250653Z AUTO 04004KT 9SM OVC044 M15/M18 A2975 RMK AO2 SLP113 T11501178 411111161
KLXV 250553Z AUTO 03005KT 10SM OVC050 M15/M18 A2976 RMK AO2 SLP116 T11501178 11117 21161 51005
KLXV 250453Z AUTO 06004KT 10SM OVC060 M15/M19 A2976 RMK AO2 SLP120 T11501194
KLXV 250353Z AUTO 00000KT 10SM OVC065 M14/M20 A2976 RMK AO2 SLP120 T11441200
KLXV 250253Z AUTO 05005KT 10SM BKN075 OVC090 M15/M20 A2974 RMK AO2 SLP123 T11501200 51008
KLXV 250153Z AUTO 00000KT 10SM SCT110 M15/M20 A2973 RMK AO2 SLP116 T11501200
KLXV 250053Z AUTO 34004KT 10SM FEW100 M14/M19 A2973 RMK AO2 SLP110 T11441194
KLXV 242353Z AUTO 28007KT 10SM CLR M12/M21 A2971 RMK AO2 SLP092 60000 T11171211 11111 21133 56004
KLXV 242253Z AUTO 31012G23KT 10SM CLR M12/M19 A2971 RMK AO2 PK WND 30029/2203 SLP095 T11171194
KLXV 242153Z AUTO 28015G32KT 9SM CLR M12/M19 A2970 RMK AO2 PK WND 28032/2149 UPE40 SLP086 P0000 T11171189
KLXV 242053Z AUTO 31017G28KT 7SM UP SCT032 M12/M18 A2972 RMK AO2 PK WND 29035/1955 UPB40 SLP093 P0000 60000 T11171183 58010
KLXV 242007Z AUTO 31015G32KT 3SM BLSN FEW041 M12/M20 A2974 RMK AO2 PK WND 29035/1955 T11171200
KLXV 242000Z AUTO 30020G35KT 1 1/2SM BLSN SCT041 M12/M20 A2974 RMK AO2 PK WND 29035/1955 VIS 3/4V4 T11221200
KLXV 241953Z AUTO 29024G34KT 2SM BLSN SCT041 M12/M21 A2975 RMK AO2 PK WND 30034/1952 VIS 3/4V5 UPB28E30 SLP101 P0000 T11221206
KLXV 241853Z AUTO 31012G21KT 280V360 10SM BKN037 BKN045 M13/M21 A2975 RMK AO2 PK WND 32027/1819 UPE1756B20E38 SLP103 P0000 T11281206
KLXV 241753Z AUTO 30013G24KT 5SM UP SCT035 BKN043 BKN050 M13/M21 A2977 RMK AO2 UPB20 SLP109 P0000 60000 T11331211 11133 21161 51006
KLXV 241653Z AUTO 33009G15KT 10SM BKN034 OVC044 M14/M21 A2976 RMK AO2 SNE02 SLP111 P0000 T11441206
KLXV 241626Z AUTO 33011G18KT 10SM SCT024 BKN035 OVC044 M15/M21 A2975 RMK AO2 SNE02 P0000 T11501211
KLXV 241611Z AUTO 34008G19KT 7SM BKN024 OVC035 M14/M20 A2975 RMK AO2 SNE02 P0000 T11441200
KLXV 241553Z AUTO 32007G22KT 290V360 2SM -SN BKN022 OVC031 M15/M20 A2975 RMK AO2 VIS 1V3 SNB01 SLP105 P0000 T11501200
KLXV 241508Z AUTO 31010G18KT 1 3/4SM -SN OVC026 M16/M19 A2975 RMK AO2 SNB01 P0000 T11561194
KLXV 241453Z AUTO 32006KT 5SM HZ BKN026 OVC033 M16/M20 A2974 RMK AO2 SNB26E42 SLP099 P0000 60000 T11611200 53010
KLXV 241442Z AUTO 34012G19KT 3SM HZ BKN026 BKN031 OVC039 M16/M20 A2974 RMK AO2 SNB26E42 P0000 T11611200
KLXV 241430Z AUTO 32008G20KT 1 3/4SM -SN OVC026 M16/M20 A2973 RMK AO2 SNB26 P0000 T11611200
KLXV 241353Z AUTO 32012G21KT 3SM HZ OVC024 M16/M19 A2973 RMK AO2 SNE07 SLP095 P0000 T11561194
KLXV 241329Z AUTO 31012KT 5SM HZ OVC029 M16/M20 A2972 RMK AO2 SNE07 P0000 T11561200
KLXV 241310Z AUTO 31012G19KT 6SM HZ OVC030 M15/M19 A2971 RMK AO2 SNE07 P0000 T11501194
KLXV 241303Z AUTO 30011G18KT 4SM -SN OVC028 M16/M19 A2970 RMK AO2 P0000 T11561189
KLXV 241253Z AUTO 32012G24KT 2SM -SN OVC024 M15/M19 A2971 RMK AO2 SLP077 P0000 T11501189
KLXV 241246Z AUTO 31016G22KT 3SM -SN OVC022 M16/M19 A2970 RMK AO2 P0000 T11561189
KLXV 241226Z AUTO 33006KT 2SM -SN BR OVC021 M16/M18 A2969 RMK AO2 P0000 T11561178
KLXV 241209Z AUTO 32011G17KT 3SM -SN OVC020 M15/M18 A2970 RMK AO2 P0000 T11501183
KLXV 241153Z AUTO 33008KT 1SM -SN BR VV016 M15/M17 A2970 RMK AO2 SNB12 SLP071 P0000 60001 70001 T11501172 11128 21156 56003
KLXV 241141Z AUTO 32009KT 1 1/4SM -SN BR OVC015 M16/M17 A2970 RMK AO2 SNB12 P0000 T11561172
KLXV 241127Z AUTO 32010G20KT 1 1/4SM -SN BR BKN011 M16/M18 A2970 RMK AO2 SNB12 P0000 T11561178
KLXV 241118Z AUTO 32012G25KT 1 3/4SM -SN SCT009 BKN017 M15/M18 A2971 RMK AO2 SNB12 P0000 T11501178
KLXV 241115Z AUTO 32013G25KT 2 1/2SM -SN SCT009 M15/M18 A2971 RMK AO2 SNB12 P0000 T11501183
KLXV 241102Z AUTO 32011G19KT 9SM SCT012 M15/M18 A2970 RMK AO2 T11501183
KLXV 241053Z AUTO 32012G22KT 5SM HZ BKN018 M15/M18 A2970 RMK AO2 SNE16B31E41 SLP067 P0001 T11501178
KLXV 241047Z AUTO 32009G17KT 5SM HZ FEW009 FEW014 BKN024 M15/M18 A2970 RMK AO2 SNE16B31E41 P0001
KLXV 241020Z AUTO 32011G16KT 7SM OVC037 M14/M18 A2970 RMK AO2 SNE16 P0001 T11441178
KLXV 241012Z AUTO 32007KT 2SM -SN BR OVC033 M14/M17 A2971 RMK AO2 P0001 T11441167
KLXV 240953Z AUTO 36003KT 1 1/2SM -SN BR OVC023 M14/M16 A2971 RMK AO2 SNB22 SLP070 P0000 T11441161
KLXV 240945Z AUTO 01003KT 1 3/4SM -SN BR OVC021 M14/M17 A2971 RMK AO2 SNB22 P0000 T11441167
KLXV 240923Z AUTO 36003KT 4SM -SN BR BKN015 BKN020 M14/M17 A2971 RMK AO2 SNB22 P0000 T11441167
KLXV 240916Z AUTO 36004KT 5SM BR BKN014 BKN020 BKN060 M14/M17 A2971 RMK AO2 T11441167
KLXV 240853Z AUTO VRB03KT 10SM FEW060 M14/M17 A2971 RMK AO2 SLP072 T11391172 56009
KLXV 240753Z AUTO 35006KT 10SM FEW050 SCT075 OVC095 M14/M16 A2972 RMK AO2 SLP080 T11391161
KLXV 240653Z AUTO 06005KT 10SM BKN070 OVC085 M13/M15 A2973 RMK AO2 SLP077 T11331150 410611161
KLXV 240553Z AUTO 03005KT 10SM OVC055 M13/M15 A2975 RMK AO2 SLP089 60000 T11281150 11072 21128 58010